createdAt,value
2024-03-28T00:04:06.694Z,71
2024-03-28T00:16:06.431Z,71
2024-03-28T00:28:06.409Z,71
2024-03-28T00:40:06.582Z,71
2024-03-28T00:52:06.716Z,71
2024-03-28T01:04:06.772Z,71.5
2024-03-28T01:16:07.077Z,72
2024-03-28T01:28:08.917Z,73
2024-03-28T01:40:06.738Z,73.5
2024-03-28T01:52:06.544Z,74
2024-03-28T02:04:06.689Z,75
2024-03-28T02:16:06.847Z,75.5
2024-03-28T02:28:06.601Z,75.5
2024-03-28T02:40:06.773Z,75.5
2024-03-28T02:52:06.883Z,76
2024-03-28T03:04:06.914Z,76
2024-03-28T03:16:07.063Z,76.5
2024-03-28T03:28:06.612Z,77
2024-03-28T03:40:06.825Z,77
2024-03-28T03:52:06.929Z,77
2024-03-28T04:04:06.666Z,77
2024-03-28T04:16:06.629Z,77
2024-03-28T04:28:07.190Z,77
2024-03-28T04:40:06.897Z,76.5
2024-03-28T04:52:06.714Z,76.5
2024-03-28T05:04:07.056Z,76.5
2024-03-28T05:16:07.001Z,76.5
2024-03-28T05:28:06.959Z,76.5
2024-03-28T05:40:06.844Z,76.5
2024-03-28T05:52:06.873Z,76.5
2024-03-28T06:04:07.041Z,75.5
2024-03-28T06:16:06.789Z,63
2024-03-28T06:28:06.983Z,64.5
2024-03-28T06:40:06.911Z,66.5
2024-03-28T06:52:07.092Z,69.5
2024-03-28T07:04:07.053Z,70.5
2024-03-28T07:16:06.833Z,71.5
2024-03-28T07:28:07.308Z,72
2024-03-28T07:40:06.880Z,72
2024-03-28T07:52:07.025Z,72
2024-03-28T08:04:07.063Z,72
2024-03-28T08:16:07.425Z,70.5
2024-03-28T08:28:06.939Z,60.5
2024-03-28T08:40:06.940Z,62
2024-03-28T08:52:07.099Z,64
2024-03-28T09:04:07.217Z,65.5
2024-03-28T09:16:07.000Z,67
2024-03-28T09:28:06.923Z,67.5
2024-03-28T09:40:07.548Z,68
2024-03-28T09:52:07.724Z,68
2024-03-28T10:04:07.195Z,70
2024-03-28T10:16:07.145Z,69.5
2024-03-28T10:28:07.137Z,70
2024-03-28T10:40:07.025Z,69.5
2024-03-28T10:52:07.006Z,69.5
2024-03-28T11:04:07.369Z,68.5
2024-03-28T11:16:07.146Z,68.5
2024-03-28T11:28:07.059Z,66
2024-03-28T11:40:07.074Z,66
2024-03-28T11:52:07.210Z,65
2024-03-28T12:04:07.172Z,66
2024-03-28T12:16:07.603Z,66
2024-03-28T12:28:07.363Z,66
2024-03-28T12:40:07.223Z,66.5
2024-03-28T12:52:07.247Z,66.5
2024-03-28T13:04:07.540Z,66.5
2024-03-28T13:16:07.147Z,67.5
2024-03-28T13:40:07.692Z,68
2024-03-28T13:52:07.237Z,69
2024-03-28T14:04:07.273Z,69
2024-03-28T14:16:07.586Z,69
2024-03-28T14:28:07.600Z,69.5
2024-03-28T14:40:07.448Z,70
2024-03-28T14:52:07.252Z,70
2024-03-28T15:04:07.420Z,71.5
2024-03-28T15:16:07.780Z,71.5
2024-03-28T15:28:07.327Z,69.5
2024-03-28T15:40:07.650Z,71
2024-03-28T15:52:07.702Z,69
2024-03-28T16:04:07.607Z,69
2024-03-28T16:16:07.331Z,69.5
2024-03-28T16:28:07.738Z,70.5
2024-03-28T16:40:07.475Z,71
2024-03-28T16:52:07.664Z,72
2024-03-28T17:04:07.400Z,71.5
2024-03-28T17:16:07.552Z,72
2024-03-28T17:28:07.489Z,72.5
2024-03-28T17:40:07.741Z,72.5
2024-03-28T17:52:07.432Z,72.5
2024-03-28T18:04:07.509Z,73.5
2024-03-28T18:16:07.626Z,73.5
2024-03-28T18:28:07.593Z,74.5
2024-03-28T18:40:07.582Z,76
2024-03-28T18:52:07.511Z,76
2024-03-28T19:04:07.640Z,76
2024-03-28T19:16:07.601Z,76
2024-03-28T19:28:07.549Z,75
2024-03-28T19:40:08.014Z,63
2024-03-28T19:52:07.863Z,63
2024-03-28T20:04:07.857Z,66
2024-03-28T20:16:07.776Z,68
2024-03-28T20:28:07.770Z,70
2024-03-28T20:40:07.677Z,71
2024-03-28T20:52:07.671Z,71.5
2024-03-28T21:04:07.806Z,72.5
2024-03-28T21:16:08.001Z,73
2024-03-28T21:28:07.698Z,73
2024-03-28T21:40:07.870Z,73.5
2024-03-28T21:52:08.493Z,73.5
2024-03-28T22:04:07.749Z,74
2024-03-28T22:16:07.730Z,74
2024-03-28T22:28:07.919Z,74.5
2024-03-28T22:40:07.840Z,74.5
2024-03-28T22:52:07.878Z,74.5
2024-03-28T23:04:07.773Z,75
2024-03-28T23:16:08.088Z,75
2024-03-28T23:28:07.871Z,75
2024-03-28T23:40:07.856Z,75
2024-03-28T23:52:07.827Z,75
